sensor_id;sensor_type;location;lat;lon;timestamp;P1;durP1;ratioP1;P2;durP2;ratioP2
51718;SDS011;37795;53.236;5.704;2022-07-29T00:01:07;2.05;;;1.33;;
51718;SDS011;37795;53.236;5.704;2022-07-29T00:03:33;2.80;;;1.50;;
51718;SDS011;37795;53.236;5.704;2022-07-29T00:05:59;3.50;;;1.50;;
51718;SDS011;37795;53.236;5.704;2022-07-29T00:08:25;2.13;;;1.52;;
51718;SDS011;37795;53.236;5.704;2022-07-29T00:10:51;2.90;;;1.70;;
51718;SDS011;37795;53.236;5.704;2022-07-29T00:13:17;1.98;;;1.45;;
51718;SDS011;37795;53.236;5.704;2022-07-29T00:15:44;4.18;;;1.70;;
51718;SDS011;37795;53.236;5.704;2022-07-29T00:18:10;2.50;;;1.48;;
51718;SDS011;37795;53.236;5.704;2022-07-29T00:20:36;3.55;;;1.92;;
51718;SDS011;37795;53.236;5.704;2022-07-29T00:23:02;3.03;;;2.03;;
51718;SDS011;37795;53.236;5.704;2022-07-29T00:25:28;3.60;;;1.90;;
51718;SDS011;37795;53.236;5.704;2022-07-29T00:27:54;3.50;;;1.98;;
51718;SDS011;37795;53.236;5.704;2022-07-29T00:30:20;2.45;;;1.90;;
51718;SDS011;37795;53.236;5.704;2022-07-29T00:32:46;3.50;;;2.20;;
51718;SDS011;37795;53.236;5.704;2022-07-29T00:35:12;5.25;;;2.08;;
51718;SDS011;37795;53.236;5.704;2022-07-29T00:37:57;2.73;;;1.80;;
51718;SDS011;37795;53.236;5.704;2022-07-29T00:40:23;4.40;;;1.77;;
51718;SDS011;37795;53.236;5.704;2022-07-29T00:42:50;1.80;;;1.50;;
51718;SDS011;37795;53.236;5.704;2022-07-29T00:45:16;6.95;;;2.40;;
51718;SDS011;37795;53.236;5.704;2022-07-29T00:47:42;3.22;;;1.75;;
51718;SDS011;37795;53.236;5.704;2022-07-29T00:50:10;2.90;;;1.75;;
51718;SDS011;37795;53.236;5.704;2022-07-29T00:52:37;3.20;;;1.85;;
51718;SDS011;37795;53.236;5.704;2022-07-29T00:55:04;3.03;;;2.23;;
51718;SDS011;37795;53.236;5.704;2022-07-29T00:57:31;4.57;;;1.85;;
51718;SDS011;37795;53.236;5.704;2022-07-29T00:59:57;4.07;;;2.33;;
51718;SDS011;37795;53.236;5.704;2022-07-29T01:02:23;5.10;;;2.40;;
51718;SDS011;37795;53.236;5.704;2022-07-29T01:04:49;3.47;;;1.83;;
51718;SDS011;37795;53.236;5.704;2022-07-29T01:07:15;2.72;;;2.20;;
51718;SDS011;37795;53.236;5.704;2022-07-29T01:09:42;4.30;;;2.13;;
51718;SDS011;37795;53.236;5.704;2022-07-29T01:12:08;2.67;;;1.80;;
51718;SDS011;37795;53.236;5.704;2022-07-29T01:14:35;3.55;;;2.15;;
51718;SDS011;37795;53.236;5.704;2022-07-29T01:17:02;3.95;;;1.80;;
51718;SDS011;37795;53.236;5.704;2022-07-29T01:22:02;6.22;;;2.38;;
51718;SDS011;37795;53.236;5.704;2022-07-29T01:24:34;1.83;;;1.58;;
51718;SDS011;37795;53.236;5.704;2022-07-29T01:29:38;5.03;;;2.40;;
51718;SDS011;37795;53.236;5.704;2022-07-29T01:32:08;2.70;;;2.20;;
51718;SDS011;37795;53.236;5.704;2022-07-29T01:37:04;3.28;;;1.80;;
51718;SDS011;37795;53.236;5.704;2022-07-29T01:39:35;2.63;;;2.08;;
51718;SDS011;37795;53.236;5.704;2022-07-29T01:44:35;4.07;;;2.10;;
51718;SDS011;37795;53.236;5.704;2022-07-29T01:47:10;5.03;;;2.28;;
51718;SDS011;37795;53.236;5.704;2022-07-29T01:49:36;3.23;;;2.23;;
51718;SDS011;37795;53.236;5.704;2022-07-29T01:52:11;3.03;;;2.30;;
51718;SDS011;37795;53.236;5.704;2022-07-29T01:54:40;5.80;;;1.97;;
51718;SDS011;37795;53.236;5.704;2022-07-29T01:57:08;5.85;;;2.42;;
51718;SDS011;37795;53.236;5.704;2022-07-29T01:59:35;4.32;;;2.00;;
51718;SDS011;37795;53.236;5.704;2022-07-29T02:02:02;2.67;;;1.85;;
51718;SDS011;37795;53.236;5.704;2022-07-29T02:04:28;2.55;;;1.85;;
51718;SDS011;37795;53.236;5.704;2022-07-29T02:06:56;3.10;;;2.42;;
51718;SDS011;37795;53.236;5.704;2022-07-29T02:09:23;3.42;;;2.03;;
51718;SDS011;37795;53.236;5.704;2022-07-29T02:11:51;5.88;;;2.47;;
51718;SDS011;37795;53.236;5.704;2022-07-29T02:14:18;3.83;;;2.35;;
51718;SDS011;37795;53.236;5.704;2022-07-29T02:16:45;5.45;;;2.60;;
51718;SDS011;37795;53.236;5.704;2022-07-29T02:19:12;3.83;;;2.53;;
51718;SDS011;37795;53.236;5.704;2022-07-29T02:21:40;3.53;;;2.30;;
51718;SDS011;37795;53.236;5.704;2022-07-29T02:24:07;5.00;;;2.60;;
51718;SDS011;37795;53.236;5.704;2022-07-29T02:26:34;3.67;;;2.10;;
51718;SDS011;37795;53.236;5.704;2022-07-29T02:29:00;3.90;;;2.40;;
51718;SDS011;37795;53.236;5.704;2022-07-29T02:31:29;5.05;;;2.40;;
51718;SDS011;37795;53.236;5.704;2022-07-29T02:33:55;3.70;;;2.47;;
51718;SDS011;37795;53.236;5.704;2022-07-29T02:36:22;3.88;;;2.40;;
51718;SDS011;37795;53.236;5.704;2022-07-29T02:38:49;5.45;;;2.90;;
51718;SDS011;37795;53.236;5.704;2022-07-29T02:41:40;3.90;;;2.65;;
51718;SDS011;37795;53.236;5.704;2022-07-29T02:44:35;4.13;;;2.60;;
51718;SDS011;37795;53.236;5.704;2022-07-29T02:46:59;3.13;;;2.42;;
51718;SDS011;37795;53.236;5.704;2022-07-29T02:51:54;3.95;;;2.47;;
51718;SDS011;37795;53.236;5.704;2022-07-29T02:54:31;4.40;;;2.43;;
51718;SDS011;37795;53.236;5.704;2022-07-29T02:57:00;9.18;;;2.92;;
51718;SDS011;37795;53.236;5.704;2022-07-29T02:59:30;5.97;;;3.17;;
51718;SDS011;37795;53.236;5.704;2022-07-29T03:01:57;4.88;;;2.88;;
51718;SDS011;37795;53.236;5.704;2022-07-29T03:04:24;4.47;;;2.47;;
51718;SDS011;37795;53.236;5.704;2022-07-29T03:06:53;5.35;;;2.50;;
51718;SDS011;37795;53.236;5.704;2022-07-29T03:09:19;4.50;;;2.63;;
51718;SDS011;37795;53.236;5.704;2022-07-29T03:11:46;5.13;;;3.10;;
51718;SDS011;37795;53.236;5.704;2022-07-29T03:14:13;4.40;;;2.20;;
51718;SDS011;37795;53.236;5.704;2022-07-29T03:16:39;4.68;;;2.60;;
51718;SDS011;37795;53.236;5.704;2022-07-29T03:19:06;3.78;;;2.17;;
51718;SDS011;37795;53.236;5.704;2022-07-29T03:21:32;5.43;;;2.33;;
51718;SDS011;37795;53.236;5.704;2022-07-29T03:23:59;4.53;;;2.47;;
51718;SDS011;37795;53.236;5.704;2022-07-29T03:26:25;4.13;;;2.58;;
51718;SDS011;37795;53.236;5.704;2022-07-29T03:28:51;3.60;;;2.33;;
51718;SDS011;37795;53.236;5.704;2022-07-29T03:31:17;5.80;;;2.50;;
51718;SDS011;37795;53.236;5.704;2022-07-29T03:33:43;4.85;;;2.28;;
51718;SDS011;37795;53.236;5.704;2022-07-29T03:36:09;3.63;;;2.58;;
51718;SDS011;37795;53.236;5.704;2022-07-29T03:38:35;4.35;;;2.63;;
51718;SDS011;37795;53.236;5.704;2022-07-29T03:41:05;4.30;;;2.75;;
51718;SDS011;37795;53.236;5.704;2022-07-29T03:43:34;5.07;;;2.63;;
51718;SDS011;37795;53.236;5.704;2022-07-29T03:46:01;3.78;;;2.55;;
51718;SDS011;37795;53.236;5.704;2022-07-29T03:48:29;3.23;;;2.50;;
51718;SDS011;37795;53.236;5.704;2022-07-29T03:50:56;3.40;;;2.22;;
51718;SDS011;37795;53.236;5.704;2022-07-29T03:53:23;2.85;;;2.25;;
51718;SDS011;37795;53.236;5.704;2022-07-29T03:55:50;4.20;;;2.50;;
51718;SDS011;37795;53.236;5.704;2022-07-29T03:58:18;4.63;;;2.70;;
51718;SDS011;37795;53.236;5.704;2022-07-29T04:00:44;6.07;;;2.35;;
51718;SDS011;37795;53.236;5.704;2022-07-29T04:03:11;5.90;;;2.65;;
51718;SDS011;37795;53.236;5.704;2022-07-29T04:05:38;2.90;;;1.98;;
51718;SDS011;37795;53.236;5.704;2022-07-29T04:08:04;4.82;;;2.30;;
51718;SDS011;37795;53.236;5.704;2022-07-29T04:10:30;3.35;;;2.45;;
51718;SDS011;37795;53.236;5.704;2022-07-29T04:12:56;3.63;;;2.50;;
51718;SDS011;37795;53.236;5.704;2022-07-29T04:15:22;4.82;;;2.58;;
51718;SDS011;37795;53.236;5.704;2022-07-29T04:17:49;5.60;;;2.10;;
51718;SDS011;37795;53.236;5.704;2022-07-29T04:20:15;3.58;;;2.20;;
51718;SDS011;37795;53.236;5.704;2022-07-29T04:22:41;4.68;;;2.25;;
51718;SDS011;37795;53.236;5.704;2022-07-29T04:25:07;5.38;;;2.20;;
51718;SDS011;37795;53.236;5.704;2022-07-29T04:27:33;8.50;;;2.47;;
51718;SDS011;37795;53.236;5.704;2022-07-29T04:29:59;4.30;;;2.40;;
51718;SDS011;37795;53.236;5.704;2022-07-29T04:32:25;3.40;;;2.35;;
51718;SDS011;37795;53.236;5.704;2022-07-29T04:34:52;5.50;;;2.38;;
51718;SDS011;37795;53.236;5.704;2022-07-29T04:37:18;4.43;;;2.47;;
51718;SDS011;37795;53.236;5.704;2022-07-29T04:39:44;11.57;;;2.40;;
51718;SDS011;37795;53.236;5.704;2022-07-29T04:42:10;2.88;;;2.13;;
51718;SDS011;37795;53.236;5.704;2022-07-29T04:44:36;3.00;;;2.10;;
51718;SDS011;37795;53.236;5.704;2022-07-29T04:47:02;4.68;;;2.10;;
51718;SDS011;37795;53.236;5.704;2022-07-29T04:49:28;3.38;;;2.10;;
51718;SDS011;37795;53.236;5.704;2022-07-29T04:51:54;4.50;;;2.00;;
51718;SDS011;37795;53.236;5.704;2022-07-29T04:54:20;8.77;;;2.47;;
51718;SDS011;37795;53.236;5.704;2022-07-29T04:56:46;5.38;;;2.78;;
51718;SDS011;37795;53.236;5.704;2022-07-29T04:59:12;3.70;;;2.20;;
51718;SDS011;37795;53.236;5.704;2022-07-29T05:01:38;3.80;;;2.33;;
51718;SDS011;37795;53.236;5.704;2022-07-29T05:04:04;5.45;;;1.98;;
51718;SDS011;37795;53.236;5.704;2022-07-29T05:06:30;4.32;;;1.90;;
51718;SDS011;37795;53.236;5.704;2022-07-29T05:08:57;3.83;;;2.03;;
51718;SDS011;37795;53.236;5.704;2022-07-29T05:11:23;4.07;;;2.20;;
51718;SDS011;37795;53.236;5.704;2022-07-29T05:13:49;4.18;;;2.35;;
51718;SDS011;37795;53.236;5.704;2022-07-29T05:16:15;5.30;;;2.13;;
51718;SDS011;37795;53.236;5.704;2022-07-29T05:18:41;3.63;;;2.10;;
51718;SDS011;37795;53.236;5.704;2022-07-29T05:21:07;7.93;;;2.15;;
51718;SDS011;37795;53.236;5.704;2022-07-29T05:23:33;3.28;;;1.80;;
51718;SDS011;37795;53.236;5.704;2022-07-29T05:25:59;3.95;;;2.10;;
51718;SDS011;37795;53.236;5.704;2022-07-29T05:28:25;5.97;;;2.33;;
51718;SDS011;37795;53.236;5.704;2022-07-29T05:30:51;4.55;;;2.13;;
51718;SDS011;37795;53.236;5.704;2022-07-29T05:33:17;4.13;;;1.83;;
51718;SDS011;37795;53.236;5.704;2022-07-29T05:35:43;3.85;;;2.10;;
51718;SDS011;37795;53.236;5.704;2022-07-29T05:38:09;4.38;;;2.17;;
51718;SDS011;37795;53.236;5.704;2022-07-29T05:40:35;4.70;;;1.88;;
51718;SDS011;37795;53.236;5.704;2022-07-29T05:43:01;6.13;;;2.10;;
51718;SDS011;37795;53.236;5.704;2022-07-29T05:45:27;3.10;;;1.92;;
51718;SDS011;37795;53.236;5.704;2022-07-29T05:47:53;4.35;;;1.98;;
51718;SDS011;37795;53.236;5.704;2022-07-29T05:50:19;4.65;;;1.80;;
51718;SDS011;37795;53.236;5.704;2022-07-29T05:52:46;4.22;;;2.10;;
51718;SDS011;37795;53.236;5.704;2022-07-29T05:55:12;4.85;;;2.75;;
51718;SDS011;37795;53.236;5.704;2022-07-29T05:57:38;5.13;;;2.05;;
51718;SDS011;37795;53.236;5.704;2022-07-29T06:00:04;5.68;;;2.05;;
51718;SDS011;37795;53.236;5.704;2022-07-29T06:02:30;3.57;;;2.00;;
51718;SDS011;37795;53.236;5.704;2022-07-29T06:04:56;6.20;;;2.30;;
51718;SDS011;37795;53.236;5.704;2022-07-29T06:07:23;5.07;;;1.88;;
51718;SDS011;37795;53.236;5.704;2022-07-29T06:09:49;2.72;;;2.03;;
51718;SDS011;37795;53.236;5.704;2022-07-29T06:12:15;5.13;;;2.00;;
51718;SDS011;37795;53.236;5.704;2022-07-29T06:14:41;4.05;;;2.20;;
51718;SDS011;37795;53.236;5.704;2022-07-29T06:17:07;2.97;;;2.17;;
51718;SDS011;37795;53.236;5.704;2022-07-29T06:19:36;2.88;;;1.92;;
51718;SDS011;37795;53.236;5.704;2022-07-29T06:22:02;3.47;;;1.95;;
51718;SDS011;37795;53.236;5.704;2022-07-29T06:24:29;4.95;;;2.00;;
51718;SDS011;37795;53.236;5.704;2022-07-29T06:26:55;3.92;;;1.95;;
51718;SDS011;37795;53.236;5.704;2022-07-29T06:29:21;5.15;;;1.98;;
51718;SDS011;37795;53.236;5.704;2022-07-29T06:31:47;4.57;;;2.15;;
51718;SDS011;37795;53.236;5.704;2022-07-29T06:34:13;5.18;;;2.20;;
51718;SDS011;37795;53.236;5.704;2022-07-29T06:36:40;5.57;;;1.80;;
51718;SDS011;37795;53.236;5.704;2022-07-29T06:39:06;3.13;;;1.85;;
51718;SDS011;37795;53.236;5.704;2022-07-29T06:41:32;5.65;;;2.20;;
51718;SDS011;37795;53.236;5.704;2022-07-29T06:43:59;4.68;;;1.80;;
51718;SDS011;37795;53.236;5.704;2022-07-29T06:46:25;4.57;;;2.17;;
51718;SDS011;37795;53.236;5.704;2022-07-29T06:52:03;3.30;;;2.28;;
51718;SDS011;37795;53.236;5.704;2022-07-29T06:54:29;4.75;;;1.98;;
51718;SDS011;37795;53.236;5.704;2022-07-29T06:56:55;3.58;;;2.03;;
51718;SDS011;37795;53.236;5.704;2022-07-29T06:59:21;5.00;;;2.25;;
51718;SDS011;37795;53.236;5.704;2022-07-29T07:01:47;5.82;;;2.38;;
51718;SDS011;37795;53.236;5.704;2022-07-29T07:04:13;3.72;;;2.03;;
51718;SDS011;37795;53.236;5.704;2022-07-29T07:06:39;3.10;;;1.63;;
51718;SDS011;37795;53.236;5.704;2022-07-29T07:09:06;4.80;;;1.88;;
51718;SDS011;37795;53.236;5.704;2022-07-29T07:11:32;4.55;;;1.88;;
51718;SDS011;37795;53.236;5.704;2022-07-29T07:13:58;4.73;;;1.83;;
51718;SDS011;37795;53.236;5.704;2022-07-29T07:16:24;4.28;;;2.30;;
51718;SDS011;37795;53.236;5.704;2022-07-29T07:18:50;4.85;;;2.33;;
51718;SDS011;37795;53.236;5.704;2022-07-29T07:21:16;4.93;;;1.73;;
51718;SDS011;37795;53.236;5.704;2022-07-29T07:23:42;4.22;;;1.83;;
51718;SDS011;37795;53.236;5.704;2022-07-29T07:26:08;2.85;;;1.70;;
51718;SDS011;37795;53.236;5.704;2022-07-29T07:28:35;5.95;;;2.17;;
51718;SDS011;37795;53.236;5.704;2022-07-29T07:31:01;6.90;;;2.00;;
51718;SDS011;37795;53.236;5.704;2022-07-29T07:33:27;6.15;;;2.40;;
51718;SDS011;37795;53.236;5.704;2022-07-29T07:35:54;4.75;;;1.95;;
51718;SDS011;37795;53.236;5.704;2022-07-29T07:38:20;5.68;;;1.98;;
51718;SDS011;37795;53.236;5.704;2022-07-29T07:40:46;4.97;;;1.77;;
51718;SDS011;37795;53.236;5.704;2022-07-29T07:43:12;8.13;;;2.38;;
51718;SDS011;37795;53.236;5.704;2022-07-29T07:45:38;4.35;;;2.00;;
51718;SDS011;37795;53.236;5.704;2022-07-29T07:48:05;3.40;;;1.95;;
51718;SDS011;37795;53.236;5.704;2022-07-29T07:50:31;4.78;;;2.30;;
51718;SDS011;37795;53.236;5.704;2022-07-29T07:52:57;6.35;;;2.35;;
51718;SDS011;37795;53.236;5.704;2022-07-29T07:55:23;3.92;;;2.10;;
51718;SDS011;37795;53.236;5.704;2022-07-29T07:57:49;5.03;;;1.90;;
51718;SDS011;37795;53.236;5.704;2022-07-29T08:00:16;3.63;;;2.10;;
51718;SDS011;37795;53.236;5.704;2022-07-29T08:02:42;4.10;;;2.20;;
51718;SDS011;37795;53.236;5.704;2022-07-29T08:05:10;7.35;;;2.28;;
51718;SDS011;37795;53.236;5.704;2022-07-29T08:07:37;6.53;;;2.20;;
51718;SDS011;37795;53.236;5.704;2022-07-29T08:10:04;4.18;;;2.13;;
51718;SDS011;37795;53.236;5.704;2022-07-29T08:12:30;3.60;;;2.25;;
51718;SDS011;37795;53.236;5.704;2022-07-29T08:14:56;5.93;;;2.40;;
51718;SDS011;37795;53.236;5.704;2022-07-29T08:17:22;6.63;;;2.20;;
51718;SDS011;37795;53.236;5.704;2022-07-29T08:19:48;5.63;;;2.53;;
51718;SDS011;37795;53.236;5.704;2022-07-29T08:22:14;7.22;;;2.60;;
51718;SDS011;37795;53.236;5.704;2022-07-29T08:24:40;8.52;;;2.40;;
51718;SDS011;37795;53.236;5.704;2022-07-29T08:27:25;6.63;;;2.10;;
51718;SDS011;37795;53.236;5.704;2022-07-29T08:29:51;9.02;;;3.10;;
51718;SDS011;37795;53.236;5.704;2022-07-29T08:32:17;6.18;;;2.38;;
51718;SDS011;37795;53.236;5.704;2022-07-29T08:34:43;3.15;;;1.92;;
51718;SDS011;37795;53.236;5.704;2022-07-29T08:37:11;3.63;;;2.20;;
51718;SDS011;37795;53.236;5.704;2022-07-29T08:39:37;8.52;;;2.15;;
51718;SDS011;37795;53.236;5.704;2022-07-29T08:42:03;3.80;;;1.93;;
51718;SDS011;37795;53.236;5.704;2022-07-29T08:44:31;4.95;;;2.17;;
51718;SDS011;37795;53.236;5.704;2022-07-29T08:46:57;5.05;;;2.08;;
51718;SDS011;37795;53.236;5.704;2022-07-29T08:49:23;4.73;;;2.00;;
51718;SDS011;37795;53.236;5.704;2022-07-29T08:51:49;8.57;;;2.63;;
51718;SDS011;37795;53.236;5.704;2022-07-29T08:54:16;7.88;;;2.28;;
51718;SDS011;37795;53.236;5.704;2022-07-29T08:56:43;5.60;;;2.55;;
51718;SDS011;37795;53.236;5.704;2022-07-29T08:59:09;5.47;;;2.67;;
51718;SDS011;37795;53.236;5.704;2022-07-29T09:01:37;7.95;;;2.70;;
51718;SDS011;37795;53.236;5.704;2022-07-29T09:04:05;3.22;;;2.00;;
51718;SDS011;37795;53.236;5.704;2022-07-29T09:06:32;2.55;;;1.80;;
51718;SDS011;37795;53.236;5.704;2022-07-29T09:09:00;7.88;;;2.58;;
51718;SDS011;37795;53.236;5.704;2022-07-29T09:11:26;8.68;;;2.58;;
51718;SDS011;37795;53.236;5.704;2022-07-29T09:13:53;3.67;;;2.17;;
51718;SDS011;37795;53.236;5.704;2022-07-29T09:16:19;5.22;;;2.17;;
51718;SDS011;37795;53.236;5.704;2022-07-29T09:18:45;4.90;;;2.25;;
51718;SDS011;37795;53.236;5.704;2022-07-29T09:21:13;4.70;;;2.33;;
51718;SDS011;37795;53.236;5.704;2022-07-29T09:26:30;3.55;;;2.10;;
51718;SDS011;37795;53.236;5.704;2022-07-29T09:28:57;4.70;;;2.30;;
51718;SDS011;37795;53.236;5.704;2022-07-29T09:31:35;5.15;;;2.40;;
51718;SDS011;37795;53.236;5.704;2022-07-29T09:34:02;4.00;;;2.40;;
51718;SDS011;37795;53.236;5.704;2022-07-29T09:36:28;7.07;;;2.42;;
51718;SDS011;37795;53.236;5.704;2022-07-29T09:39:00;7.33;;;2.53;;
51718;SDS011;37795;53.236;5.704;2022-07-29T09:41:28;3.97;;;2.42;;
51718;SDS011;37795;53.236;5.704;2022-07-29T09:43:57;4.63;;;2.40;;
51718;SDS011;37795;53.236;5.704;2022-07-29T09:46:24;6.20;;;2.72;;
51718;SDS011;37795;53.236;5.704;2022-07-29T09:49:09;4.35;;;2.15;;
51718;SDS011;37795;53.236;5.704;2022-07-29T09:51:36;5.60;;;2.40;;
51718;SDS011;37795;53.236;5.704;2022-07-29T09:54:21;4.30;;;2.40;;
51718;SDS011;37795;53.236;5.704;2022-07-29T09:56:48;5.13;;;2.17;;
51718;SDS011;37795;53.236;5.704;2022-07-29T09:59:14;5.25;;;2.25;;
51718;SDS011;37795;53.236;5.704;2022-07-29T10:01:40;7.63;;;2.53;;
51718;SDS011;37795;53.236;5.704;2022-07-29T10:04:06;4.30;;;2.80;;
51718;SDS011;37795;53.236;5.704;2022-07-29T10:06:32;5.05;;;2.97;;
51718;SDS011;37795;53.236;5.704;2022-07-29T10:09:08;7.53;;;2.20;;
51718;SDS011;37795;53.236;5.704;2022-07-29T10:11:34;7.35;;;3.05;;
51718;SDS011;37795;53.236;5.704;2022-07-29T10:14:02;4.88;;;2.67;;
51718;SDS011;37795;53.236;5.704;2022-07-29T10:16:29;6.05;;;3.28;;
51718;SDS011;37795;53.236;5.704;2022-07-29T10:19:00;4.65;;;2.70;;
51718;SDS011;37795;53.236;5.704;2022-07-29T10:21:27;6.72;;;2.83;;
51718;SDS011;37795;53.236;5.704;2022-07-29T10:23:53;5.10;;;2.83;;
51718;SDS011;37795;53.236;5.704;2022-07-29T10:26:19;8.20;;;2.95;;
51718;SDS011;37795;53.236;5.704;2022-07-29T10:28:46;5.53;;;2.65;;
51718;SDS011;37795;53.236;5.704;2022-07-29T10:31:16;6.57;;;2.95;;
51718;SDS011;37795;53.236;5.704;2022-07-29T10:43:54;5.85;;;3.10;;
51718;SDS011;37795;53.236;5.704;2022-07-29T10:46:21;8.00;;;3.40;;
51718;SDS011;37795;53.236;5.704;2022-07-29T10:52:04;6.70;;;3.03;;
51718;SDS011;37795;53.236;5.704;2022-07-29T10:59:42;4.97;;;3.30;;
51718;SDS011;37795;53.236;5.704;2022-07-29T11:02:40;6.72;;;3.33;;
51718;SDS011;37795;53.236;5.704;2022-07-29T11:07:21;8.07;;;3.20;;
51718;SDS011;37795;53.236;5.704;2022-07-29T11:15:05;6.70;;;3.22;;
51718;SDS011;37795;53.236;5.704;2022-07-29T11:23:03;8.40;;;3.60;;
51718;SDS011;37795;53.236;5.704;2022-07-29T11:25:42;7.35;;;3.10;;
51718;SDS011;37795;53.236;5.704;2022-07-29T11:28:10;6.60;;;3.63;;
51718;SDS011;37795;53.236;5.704;2022-07-29T11:30:51;6.80;;;2.97;;
51718;SDS011;37795;53.236;5.704;2022-07-29T11:33:30;5.30;;;3.08;;
51718;SDS011;37795;53.236;5.704;2022-07-29T11:36:14;7.35;;;3.67;;
51718;SDS011;37795;53.236;5.704;2022-07-29T11:38:41;9.00;;;3.33;;
51718;SDS011;37795;53.236;5.704;2022-07-29T11:41:26;7.43;;;3.47;;
51718;SDS011;37795;53.236;5.704;2022-07-29T11:43:58;11.03;;;3.73;;
51718;SDS011;37795;53.236;5.704;2022-07-29T11:49:10;4.60;;;3.15;;
51718;SDS011;37795;53.236;5.704;2022-07-29T11:51:37;3.63;;;3.00;;
51718;SDS011;37795;53.236;5.704;2022-07-29T11:54:06;5.72;;;3.20;;
51718;SDS011;37795;53.236;5.704;2022-07-29T11:56:35;6.63;;;3.10;;
51718;SDS011;37795;53.236;5.704;2022-07-29T11:59:05;5.35;;;3.58;;
51718;SDS011;37795;53.236;5.704;2022-07-29T12:01:31;6.40;;;2.93;;
51718;SDS011;37795;53.236;5.704;2022-07-29T12:04:04;7.07;;;3.50;;
51718;SDS011;37795;53.236;5.704;2022-07-29T12:06:32;5.10;;;2.90;;
51718;SDS011;37795;53.236;5.704;2022-07-29T12:08:58;7.88;;;3.13;;
51718;SDS011;37795;53.236;5.704;2022-07-29T12:11:25;9.13;;;3.63;;
51718;SDS011;37795;53.236;5.704;2022-07-29T12:13:51;9.85;;;3.40;;
51718;SDS011;37795;53.236;5.704;2022-07-29T12:16:18;5.80;;;3.15;;
51718;SDS011;37795;53.236;5.704;2022-07-29T12:19:00;6.47;;;3.63;;
51718;SDS011;37795;53.236;5.704;2022-07-29T12:21:28;6.95;;;3.42;;
51718;SDS011;37795;53.236;5.704;2022-07-29T12:23:54;4.07;;;3.30;;
51718;SDS011;37795;53.236;5.704;2022-07-29T12:26:20;6.28;;;3.40;;
51718;SDS011;37795;53.236;5.704;2022-07-29T12:28:46;4.18;;;3.30;;
51718;SDS011;37795;53.236;5.704;2022-07-29T12:31:13;6.03;;;3.70;;
51718;SDS011;37795;53.236;5.704;2022-07-29T12:33:39;5.87;;;3.20;;
51718;SDS011;37795;53.236;5.704;2022-07-29T12:36:05;6.25;;;3.78;;
51718;SDS011;37795;53.236;5.704;2022-07-29T12:38:33;6.07;;;3.63;;
51718;SDS011;37795;53.236;5.704;2022-07-29T12:40:59;5.15;;;3.30;;
51718;SDS011;37795;53.236;5.704;2022-07-29T12:43:26;7.38;;;3.20;;
51718;SDS011;37795;53.236;5.704;2022-07-29T12:45:53;5.40;;;3.25;;
51718;SDS011;37795;53.236;5.704;2022-07-29T12:48:34;7.10;;;3.10;;
51718;SDS011;37795;53.236;5.704;2022-07-29T12:51:02;4.72;;;3.33;;
51718;SDS011;37795;53.236;5.704;2022-07-29T12:53:28;7.55;;;3.60;;
51718;SDS011;37795;53.236;5.704;2022-07-29T12:55:55;7.05;;;3.17;;
51718;SDS011;37795;53.236;5.704;2022-07-29T13:01:00;5.07;;;3.40;;
51718;SDS011;37795;53.236;5.704;2022-07-29T13:03:26;6.13;;;3.00;;
51718;SDS011;37795;53.236;5.704;2022-07-29T13:05:52;4.97;;;3.40;;
51718;SDS011;37795;53.236;5.704;2022-07-29T13:08:18;6.45;;;3.13;;
51718;SDS011;37795;53.236;5.704;2022-07-29T13:10:45;7.03;;;3.43;;
51718;SDS011;37795;53.236;5.704;2022-07-29T13:13:12;7.40;;;3.58;;
51718;SDS011;37795;53.236;5.704;2022-07-29T13:15:42;7.00;;;4.03;;
51718;SDS011;37795;53.236;5.704;2022-07-29T13:20:54;5.07;;;3.80;;
51718;SDS011;37795;53.236;5.704;2022-07-29T13:23:20;5.47;;;3.15;;
51718;SDS011;37795;53.236;5.704;2022-07-29T13:25:47;6.43;;;3.65;;
51718;SDS011;37795;53.236;5.704;2022-07-29T13:28:13;8.60;;;3.45;;
51718;SDS011;37795;53.236;5.704;2022-07-29T13:30:39;5.38;;;3.75;;
51718;SDS011;37795;53.236;5.704;2022-07-29T13:33:08;7.60;;;3.88;;
51718;SDS011;37795;53.236;5.704;2022-07-29T13:35:35;4.72;;;3.83;;
51718;SDS011;37795;53.236;5.704;2022-07-29T13:38:01;8.77;;;3.77;;
51718;SDS011;37795;53.236;5.704;2022-07-29T13:40:27;7.80;;;3.65;;
51718;SDS011;37795;53.236;5.704;2022-07-29T13:42:55;6.43;;;3.78;;
51718;SDS011;37795;53.236;5.704;2022-07-29T13:45:21;5.65;;;3.20;;
51718;SDS011;37795;53.236;5.704;2022-07-29T13:47:47;5.63;;;3.63;;
51718;SDS011;37795;53.236;5.704;2022-07-29T13:50:13;10.33;;;4.13;;
51718;SDS011;37795;53.236;5.704;2022-07-29T13:52:39;8.50;;;3.67;;
51718;SDS011;37795;53.236;5.704;2022-07-29T13:55:05;7.40;;;3.30;;
51718;SDS011;37795;53.236;5.704;2022-07-29T13:57:32;9.95;;;4.07;;
51718;SDS011;37795;53.236;5.704;2022-07-29T13:59:58;7.45;;;3.83;;
51718;SDS011;37795;53.236;5.704;2022-07-29T14:02:24;5.65;;;3.03;;
51718;SDS011;37795;53.236;5.704;2022-07-29T14:04:50;10.50;;;3.70;;
51718;SDS011;37795;53.236;5.704;2022-07-29T14:07:16;7.88;;;3.53;;
51718;SDS011;37795;53.236;5.704;2022-07-29T14:09:42;9.13;;;3.65;;
51718;SDS011;37795;53.236;5.704;2022-07-29T14:12:08;7.03;;;3.75;;
51718;SDS011;37795;53.236;5.704;2022-07-29T14:14:34;3.95;;;3.22;;
51718;SDS011;37795;53.236;5.704;2022-07-29T14:17:01;7.57;;;3.72;;
51718;SDS011;37795;53.236;5.704;2022-07-29T14:19:28;8.65;;;3.05;;
51718;SDS011;37795;53.236;5.704;2022-07-29T14:21:54;4.83;;;3.67;;
51718;SDS011;37795;53.236;5.704;2022-07-29T14:24:20;5.65;;;3.80;;
51718;SDS011;37795;53.236;5.704;2022-07-29T14:26:46;7.15;;;3.53;;
51718;SDS011;37795;53.236;5.704;2022-07-29T14:29:12;6.57;;;3.77;;
51718;SDS011;37795;53.236;5.704;2022-07-29T14:31:38;6.47;;;3.45;;
51718;SDS011;37795;53.236;5.704;2022-07-29T14:34:04;5.53;;;3.25;;
51718;SDS011;37795;53.236;5.704;2022-07-29T14:36:30;4.27;;;2.60;;
51718;SDS011;37795;53.236;5.704;2022-07-29T14:38:56;4.90;;;3.03;;
51718;SDS011;37795;53.236;5.704;2022-07-29T14:41:22;7.53;;;3.55;;
51718;SDS011;37795;53.236;5.704;2022-07-29T14:43:48;6.10;;;3.00;;
51718;SDS011;37795;53.236;5.704;2022-07-29T14:46:14;4.93;;;3.42;;
51718;SDS011;37795;53.236;5.704;2022-07-29T14:48:40;9.50;;;3.40;;
51718;SDS011;37795;53.236;5.704;2022-07-29T14:51:07;9.13;;;3.80;;
51718;SDS011;37795;53.236;5.704;2022-07-29T14:53:33;6.13;;;3.22;;
51718;SDS011;37795;53.236;5.704;2022-07-29T14:55:59;5.20;;;3.08;;
51718;SDS011;37795;53.236;5.704;2022-07-29T14:58:25;6.22;;;3.17;;
51718;SDS011;37795;53.236;5.704;2022-07-29T15:00:51;5.85;;;3.42;;
51718;SDS011;37795;53.236;5.704;2022-07-29T15:03:17;6.10;;;3.17;;
51718;SDS011;37795;53.236;5.704;2022-07-29T15:05:43;5.72;;;3.67;;
51718;SDS011;37795;53.236;5.704;2022-07-29T15:08:09;5.32;;;2.67;;
51718;SDS011;37795;53.236;5.704;2022-07-29T15:10:35;7.37;;;3.10;;
51718;SDS011;37795;53.236;5.704;2022-07-29T15:13:01;5.75;;;2.50;;
51718;SDS011;37795;53.236;5.704;2022-07-29T15:15:27;4.82;;;3.45;;
51718;SDS011;37795;53.236;5.704;2022-07-29T15:17:54;7.25;;;3.38;;
51718;SDS011;37795;53.236;5.704;2022-07-29T15:20:20;5.60;;;3.10;;
51718;SDS011;37795;53.236;5.704;2022-07-29T15:22:46;8.77;;;3.35;;
51718;SDS011;37795;53.236;5.704;2022-07-29T15:25:12;6.03;;;3.13;;
51718;SDS011;37795;53.236;5.704;2022-07-29T15:27:38;7.53;;;3.53;;
51718;SDS011;37795;53.236;5.704;2022-07-29T15:30:05;7.53;;;3.40;;
51718;SDS011;37795;53.236;5.704;2022-07-29T15:32:31;8.07;;;3.58;;
51718;SDS011;37795;53.236;5.704;2022-07-29T15:34:57;5.95;;;3.20;;
51718;SDS011;37795;53.236;5.704;2022-07-29T15:37:23;5.20;;;3.20;;
51718;SDS011;37795;53.236;5.704;2022-07-29T15:39:49;6.32;;;3.08;;
51718;SDS011;37795;53.236;5.704;2022-07-29T15:42:15;7.65;;;3.30;;
51718;SDS011;37795;53.236;5.704;2022-07-29T15:44:41;7.65;;;3.22;;
51718;SDS011;37795;53.236;5.704;2022-07-29T15:47:07;5.95;;;3.10;;